createdAt,value
2022-09-29T00:01:10.350Z,99.90
2022-09-29T00:03:39.053Z,99.90
2022-09-29T00:06:13.572Z,99.90
2022-09-29T00:08:41.566Z,99.90
2022-09-29T00:11:10.212Z,99.90
2022-09-29T00:13:38.243Z,99.90
2022-09-29T00:16:08.310Z,99.90
2022-09-29T00:18:36.889Z,99.90
2022-09-29T00:21:07.136Z,99.90
2022-09-29T00:23:36.588Z,99.90
2022-09-29T00:26:07.089Z,99.90
2022-09-29T00:28:36.598Z,99.90
2022-09-29T00:31:07.681Z,99.90
2022-09-29T00:33:37.576Z,99.90
2022-09-29T00:36:08.350Z,99.90
2022-09-29T00:38:37.179Z,99.90
2022-09-29T00:41:06.230Z,99.90
2022-09-29T00:43:56.995Z,99.90
2022-09-29T00:46:40.525Z,99.90
2022-09-29T00:49:16.144Z,99.90
2022-09-29T00:51:49.294Z,99.90
2022-09-29T00:54:18.698Z,99.90
2022-09-29T00:56:48.115Z,99.90
2022-09-29T00:59:21.825Z,99.90
2022-09-29T01:01:51.452Z,99.90
2022-09-29T01:04:22.623Z,99.90
2022-09-29T01:06:54.511Z,99.90
2022-09-29T01:09:27.178Z,99.90
2022-09-29T01:11:58.121Z,99.90
2022-09-29T01:14:27.363Z,99.90
2022-09-29T01:16:56.736Z,99.90
2022-09-29T01:19:35.652Z,99.90
2022-09-29T01:22:15.049Z,99.90
2022-09-29T01:25:11.066Z,99.90
2022-09-29T01:28:22.654Z,99.90
2022-09-29T01:31:05.936Z,99.90
2022-09-29T01:33:40.929Z,99.90
2022-09-29T01:36:17.413Z,99.90
2022-09-29T01:38:55.756Z,99.90
2022-09-29T01:41:33.330Z,99.90
2022-09-29T01:44:07.432Z,99.90
2022-09-29T01:46:40.409Z,99.90
2022-09-29T01:49:10.094Z,99.90
2022-09-29T01:51:41.978Z,99.90
2022-09-29T01:54:15.378Z,99.90
2022-09-29T01:56:49.241Z,99.90
2022-09-29T01:59:23.420Z,99.90
2022-09-29T02:02:00.816Z,99.90
2022-09-29T02:04:33.269Z,99.90
2022-09-29T02:07:05.113Z,99.90
2022-09-29T02:09:38.452Z,99.90
2022-09-29T02:12:08.583Z,99.90
2022-09-29T02:14:43.637Z,99.90
2022-09-29T02:17:19.767Z,99.90
2022-09-29T02:19:50.915Z,99.90
2022-09-29T02:22:19.815Z,99.90
2022-09-29T02:24:48.266Z,99.90
2022-09-29T02:27:16.609Z,99.90
2022-09-29T02:29:45.559Z,99.90
2022-09-29T02:32:15.121Z,99.90
2022-09-29T02:34:47.686Z,99.90
2022-09-29T02:37:31.439Z,99.90
2022-09-29T02:40:17.673Z,99.90
2022-09-29T02:42:56.343Z,99.90
2022-09-29T02:45:38.910Z,99.90
2022-09-29T02:48:29.202Z,99.90
2022-09-29T02:51:13.286Z,99.90
2022-09-29T02:53:53.658Z,99.90
2022-09-29T02:56:30.381Z,99.90
2022-09-29T02:59:02.758Z,99.90
2022-09-29T03:01:33.144Z,99.90
2022-09-29T03:04:04.710Z,99.90
2022-09-29T03:06:33.254Z,99.90
2022-09-29T03:09:01.953Z,99.90
2022-09-29T03:11:30.108Z,99.90
2022-09-29T03:13:58.213Z,99.90
2022-09-29T03:16:27.137Z,99.90
2022-09-29T03:18:56.773Z,99.90
2022-09-29T03:21:26.276Z,99.90
2022-09-29T03:23:57.680Z,99.90
2022-09-29T03:26:26.483Z,99.90
2022-09-29T03:28:55.112Z,99.90
2022-09-29T03:31:23.515Z,99.90
2022-09-29T03:33:52.069Z,99.90
2022-09-29T03:36:20.356Z,99.90
2022-09-29T03:38:50.016Z,99.90
2022-09-29T03:41:18.365Z,99.90
2022-09-29T03:43:46.659Z,99.90
2022-09-29T03:46:14.889Z,99.90
2022-09-29T03:48:43.220Z,99.90
2022-09-29T03:51:11.569Z,99.90
2022-09-29T03:53:39.786Z,99.90
2022-09-29T03:56:09.406Z,99.90
2022-09-29T03:58:37.654Z,99.90
2022-09-29T04:01:06.866Z,99.90
2022-09-29T04:03:35.392Z,99.90
2022-09-29T04:06:03.896Z,99.90
2022-09-29T04:08:32.127Z,99.90
2022-09-29T04:11:00.548Z,99.90
2022-09-29T04:13:30.537Z,99.90
2022-09-29T04:16:00.222Z,99.90
2022-09-29T04:18:29.410Z,99.90
2022-09-29T04:21:00.691Z,99.90
2022-09-29T04:23:30.470Z,99.90
2022-09-29T04:26:24.173Z,99.90
2022-09-29T04:28:53.717Z,99.90
2022-09-29T04:31:22.171Z,99.90
2022-09-29T04:33:50.544Z,99.90
2022-09-29T04:36:18.758Z,99.90
2022-09-29T04:38:48.619Z,99.90
2022-09-29T04:41:16.833Z,99.90
2022-09-29T04:43:45.286Z,99.90
2022-09-29T04:46:16.220Z,99.90
2022-09-29T04:48:44.736Z,99.90
2022-09-29T04:51:12.957Z,99.90
2022-09-29T04:53:41.209Z,99.90
2022-09-29T04:56:10.491Z,99.90
2022-09-29T04:58:38.944Z,99.90
2022-09-29T05:01:13.886Z,99.90
2022-09-29T05:03:44.370Z,99.90
2022-09-29T05:06:12.753Z,99.90
2022-09-29T05:08:40.966Z,99.90
2022-09-29T05:11:10.866Z,99.90
2022-09-29T05:13:39.358Z,99.90
2022-09-29T05:16:08.016Z,99.90
2022-09-29T05:18:36.386Z,99.90
2022-09-29T05:23:55.395Z,99.90
2022-09-29T05:26:23.726Z,99.90
2022-09-29T05:28:52.207Z,99.90
2022-09-29T05:31:20.514Z,99.90
2022-09-29T05:33:51.134Z,99.90
2022-09-29T05:36:20.713Z,99.90
2022-09-29T05:38:49.012Z,99.90
2022-09-29T05:41:22.574Z,99.90
2022-09-29T05:43:53.821Z,99.90
2022-09-29T05:46:23.299Z,99.90
2022-09-29T05:48:52.394Z,99.90
2022-09-29T05:51:24.358Z,99.90
2022-09-29T05:53:52.797Z,99.90
2022-09-29T05:56:23.412Z,99.90
2022-09-29T05:58:51.978Z,99.90
2022-09-29T06:01:21.947Z,99.90
2022-09-29T06:03:51.397Z,99.90
2022-09-29T06:06:22.675Z,99.90
2022-09-29T06:08:51.598Z,99.90
2022-09-29T06:11:21.669Z,99.90
2022-09-29T06:13:51.812Z,99.90
2022-09-29T06:16:22.066Z,99.90
2022-09-29T06:18:50.487Z,99.90
2022-09-29T06:21:21.282Z,99.90
2022-09-29T06:23:51.260Z,99.90
2022-09-29T06:26:23.877Z,99.90
2022-09-29T06:28:53.107Z,99.90
2022-09-29T06:31:23.551Z,99.90
2022-09-29T06:33:52.439Z,99.90
2022-09-29T06:36:41.878Z,99.90
2022-09-29T06:39:13.625Z,99.90
2022-09-29T06:41:43.381Z,99.90
2022-09-29T06:44:11.644Z,99.90
2022-09-29T06:46:39.837Z,99.90
2022-09-29T06:49:08.082Z,99.90
2022-09-29T06:51:45.226Z,99.90
2022-09-29T06:54:17.233Z,99.90
2022-09-29T06:56:48.303Z,99.90
2022-09-29T06:59:16.858Z,99.90
2022-09-29T07:01:45.322Z,99.90
2022-09-29T07:04:13.700Z,99.90
2022-09-29T07:06:42.344Z,99.90
2022-09-29T07:09:15.785Z,99.90
2022-09-29T07:11:46.933Z,99.90
2022-09-29T07:14:15.377Z,99.90
2022-09-29T07:16:43.858Z,99.90
2022-09-29T07:19:12.145Z,99.90
2022-09-29T07:21:40.307Z,99.90
2022-09-29T07:24:09.772Z,99.90
2022-09-29T07:26:38.096Z,99.90
2022-09-29T07:29:12.665Z,99.90
2022-09-29T07:31:50.737Z,99.90
2022-09-29T07:34:20.390Z,99.90
2022-09-29T07:36:48.583Z,99.90
2022-09-29T07:39:16.986Z,99.90
2022-09-29T07:41:45.222Z,99.90
2022-09-29T07:44:14.901Z,99.90
2022-09-29T07:46:44.226Z,99.90
2022-09-29T07:49:12.491Z,99.90
2022-09-29T07:51:40.770Z,99.90
2022-09-29T07:54:09.255Z,99.90
2022-09-29T07:56:37.414Z,99.90
2022-09-29T07:59:05.734Z,99.90
2022-09-29T08:01:35.499Z,99.90
2022-09-29T08:04:03.812Z,99.90
2022-09-29T08:06:32.582Z,99.90
2022-09-29T08:09:04.595Z,99.90
2022-09-29T08:11:34.079Z,99.90
2022-09-29T08:14:02.971Z,99.90
2022-09-29T08:16:31.853Z,99.90
2022-09-29T08:19:01.799Z,99.90
2022-09-29T08:21:31.891Z,99.90
2022-09-29T08:24:02.371Z,99.90
2022-09-29T08:26:41.545Z,99.90
2022-09-29T08:29:16.015Z,99.90
2022-09-29T08:31:45.680Z,99.90
2022-09-29T08:34:16.208Z,99.90
2022-09-29T08:36:44.544Z,99.90
2022-09-29T08:39:13.262Z,99.90
2022-09-29T08:41:52.090Z,99.90
2022-09-29T08:44:38.908Z,99.90
2022-09-29T08:47:18.177Z,99.90
2022-09-29T08:49:53.790Z,99.90
2022-09-29T08:52:25.927Z,99.90
2022-09-29T08:54:59.010Z,99.90
2022-09-29T08:57:27.870Z,99.90
2022-09-29T08:59:57.906Z,99.90
2022-09-29T09:02:46.683Z,99.90
2022-09-29T09:05:27.465Z,99.90
2022-09-29T09:08:04.351Z,99.90
2022-09-29T09:10:41.350Z,99.90
2022-09-29T09:13:21.309Z,99.90
2022-09-29T09:16:01.951Z,99.90
2022-09-29T09:18:45.138Z,99.90
2022-09-29T09:21:19.093Z,99.90
2022-09-29T09:23:58.408Z,99.90
2022-09-29T09:26:37.557Z,99.90
2022-09-29T09:29:10.297Z,99.90
2022-09-29T09:31:43.394Z,99.90
2022-09-29T09:34:17.773Z,99.90
2022-09-29T09:37:00.515Z,99.90
2022-09-29T09:39:36.531Z,99.90
2022-09-29T09:42:14.893Z,99.90
2022-09-29T09:44:48.091Z,99.90
2022-09-29T09:47:25.789Z,99.90
2022-09-29T09:49:58.209Z,99.90
2022-09-29T09:52:32.859Z,99.90
2022-09-29T09:55:04.490Z,99.90
2022-09-29T09:57:50.416Z,99.90
2022-09-29T10:00:22.933Z,99.90
2022-09-29T10:02:52.829Z,99.90
2022-09-29T10:05:24.055Z,99.90
2022-09-29T10:07:54.514Z,99.90
2022-09-29T10:10:24.677Z,99.90
2022-09-29T10:12:59.972Z,99.90
2022-09-29T10:15:33.781Z,99.90
2022-09-29T10:18:07.525Z,99.90
2022-09-29T10:20:38.234Z,99.90
2022-09-29T10:23:29.826Z,99.90
2022-09-29T10:26:05.560Z,99.90
2022-09-29T10:28:41.854Z,99.90
2022-09-29T10:31:25.230Z,99.90
2022-09-29T10:33:57.127Z,99.90
2022-09-29T10:36:27.097Z,99.90
2022-09-29T10:39:00.891Z,99.90
2022-09-29T10:41:31.926Z,99.90
2022-09-29T10:44:21.781Z,99.90
2022-09-29T10:46:53.486Z,99.90
2022-09-29T10:49:22.958Z,99.90
2022-09-29T10:52:04.513Z,99.90
2022-09-29T10:54:37.254Z,99.90
2022-09-29T10:57:15.318Z,99.90
2022-09-29T10:59:50.534Z,99.90
2022-09-29T11:02:25.009Z,99.90
2022-09-29T11:04:55.135Z,99.90
2022-09-29T11:07:23.254Z,99.90
2022-09-29T11:09:54.872Z,99.90
2022-09-29T11:12:31.440Z,99.90
2022-09-29T11:15:00.344Z,99.90
2022-09-29T11:17:31.046Z,99.90
2022-09-29T11:20:02.103Z,99.90
2022-09-29T11:22:57.370Z,99.90
2022-09-29T11:25:43.519Z,99.90
2022-09-29T11:28:32.887Z,99.90
2022-09-29T11:31:14.520Z,99.90
2022-09-29T11:33:53.241Z,99.90
2022-09-29T11:36:32.206Z,99.90
2022-09-29T11:39:14.114Z,99.90
2022-09-29T11:42:01.210Z,99.90
2022-09-29T11:44:49.655Z,99.90
2022-09-29T11:47:34.081Z,99.90
2022-09-29T11:50:22.757Z,99.90
2022-09-29T11:53:10.887Z,99.90
2022-09-29T11:56:01.902Z,99.90
2022-09-29T11:58:45.944Z,99.90
2022-09-29T12:01:28.002Z,99.90
2022-09-29T12:04:15.403Z,99.90
2022-09-29T12:06:53.779Z,99.90
2022-09-29T12:09:57.340Z,99.90
2022-09-29T12:12:37.009Z,99.90
2022-09-29T12:15:20.099Z,99.90
2022-09-29T12:17:52.305Z,99.90
2022-09-29T12:20:24.037Z,99.90
2022-09-29T12:22:54.918Z,99.90
2022-09-29T12:25:26.353Z,99.90
2022-09-29T12:27:57.674Z,99.90
2022-09-29T12:30:29.861Z,99.90
2022-09-29T12:33:06.719Z,99.90
2022-09-29T12:35:43.875Z,99.90
2022-09-29T12:38:18.127Z,99.90
2022-09-29T12:40:53.225Z,99.90
2022-09-29T12:43:28.210Z,99.90
2022-09-29T12:46:04.507Z,99.90
2022-09-29T12:48:46.257Z,99.90
2022-09-29T12:51:21.694Z,97.90
2022-09-29T12:54:01.255Z,97.20
2022-09-29T12:56:34.864Z,92.70
2022-09-29T12:59:08.595Z,93.00
2022-09-29T13:01:39.329Z,91.50
2022-09-29T13:04:38.406Z,93.20
2022-09-29T13:07:41.785Z,96.50
2022-09-29T13:10:43.271Z,99.90
2022-09-29T13:13:48.060Z,99.90
2022-09-29T13:16:38.760Z,99.90
2022-09-29T13:19:57.182Z,99.90
2022-09-29T13:22:42.546Z,99.90
2022-09-29T13:25:23.259Z,99.90
2022-09-29T13:27:53.603Z,99.90
2022-09-29T13:30:25.119Z,99.90
2022-09-29T13:32:58.339Z,99.90
2022-09-29T13:35:27.572Z,99.90
2022-09-29T13:38:05.785Z,99.90
2022-09-29T13:40:34.648Z,99.90
2022-09-29T13:43:05.236Z,99.90
2022-09-29T13:45:41.222Z,99.90
2022-09-29T13:48:41.599Z,99.90
2022-09-29T13:51:52.012Z,99.90
2022-09-29T13:54:29.731Z,99.90
2022-09-29T13:57:28.725Z,99.90
2022-09-29T14:00:25.595Z,99.90
2022-09-29T14:03:25.179Z,99.90
2022-09-29T14:06:36.186Z,99.90
2022-09-29T14:09:03.788Z,99.90
2022-09-29T14:11:35.658Z,99.90
2022-09-29T14:14:07.776Z,99.90
2022-09-29T14:16:48.580Z,99.90
2022-09-29T14:19:37.740Z,99.90
2022-09-29T14:22:26.967Z,99.90
2022-09-29T14:24:55.816Z,99.90
2022-09-29T14:27:33.591Z,99.90
2022-09-29T14:30:20.140Z,99.90
2022-09-29T14:32:55.853Z,99.90
2022-09-29T14:35:29.068Z,99.90
2022-09-29T14:38:03.383Z,99.90
2022-09-29T14:40:32.619Z,99.90
2022-09-29T14:43:13.681Z,99.90
2022-09-29T14:46:22.829Z,99.90
2022-09-29T14:49:20.881Z,99.90
2022-09-29T14:52:01.216Z,99.90
2022-09-29T14:54:43.253Z,99.90
2022-09-29T14:57:24.418Z,99.90
2022-09-29T15:00:05.273Z,99.90
2022-09-29T15:02:35.569Z,99.90
2022-09-29T15:05:14.549Z,99.90
2022-09-29T15:07:43.697Z,99.90
2022-09-29T15:10:23.202Z,99.90
2022-09-29T15:12:51.995Z,99.90
2022-09-29T15:15:34.641Z,99.90
2022-09-29T15:18:21.012Z,99.90
2022-09-29T15:21:01.083Z,99.90
2022-09-29T15:23:57.607Z,99.90
2022-09-29T15:26:31.282Z,99.90
2022-09-29T15:29:00.187Z,99.90
2022-09-29T15:31:34.168Z,99.90
2022-09-29T15:34:04.115Z,99.90
2022-09-29T15:36:36.662Z,99.90
2022-09-29T15:39:07.729Z,99.90
2022-09-29T15:41:36.271Z,99.90
2022-09-29T15:44:13.223Z,99.90
2022-09-29T15:46:50.005Z,99.90
2022-09-29T15:49:19.906Z,99.90
2022-09-29T15:51:58.254Z,99.90
2022-09-29T15:54:29.693Z,99.90
2022-09-29T15:57:15.151Z,99.90
2022-09-29T15:59:50.105Z,99.90
2022-09-29T16:02:26.747Z,99.90
2022-09-29T16:04:57.287Z,99.90
2022-09-29T16:07:29.257Z,99.90
2022-09-29T16:10:09.403Z,99.90
2022-09-29T16:12:40.455Z,99.90
2022-09-29T16:15:16.736Z,99.90
2022-09-29T16:17:49.220Z,99.90
2022-09-29T16:20:23.958Z,99.90
2022-09-29T16:22:52.219Z,99.90
2022-09-29T16:25:25.330Z,99.90
2022-09-29T16:27:56.570Z,99.90
2022-09-29T16:30:27.356Z,99.90
2022-09-29T16:33:03.824Z,99.90
2022-09-29T16:35:55.939Z,99.90
2022-09-29T16:38:39.713Z,99.90
2022-09-29T16:41:18.737Z,99.90
2022-09-29T16:43:47.747Z,99.90
2022-09-29T16:46:19.460Z,99.90
2022-09-29T16:48:50.510Z,99.90
2022-09-29T16:51:38.351Z,99.90
2022-09-29T16:54:07.241Z,99.90
2022-09-29T16:56:36.001Z,99.90
2022-09-29T16:59:11.335Z,99.90
2022-09-29T17:01:41.043Z,99.90
2022-09-29T17:04:11.635Z,99.90
2022-09-29T17:06:42.355Z,99.90
2022-09-29T17:09:17.214Z,99.90
2022-09-29T17:11:45.952Z,99.90
2022-09-29T17:14:14.380Z,99.90
2022-09-29T17:16:42.523Z,99.90
2022-09-29T17:19:12.570Z,99.90
2022-09-29T17:21:40.579Z,99.90
2022-09-29T17:24:08.582Z,99.90
2022-09-29T17:26:57.163Z,99.90
2022-09-29T17:29:25.669Z,99.90
2022-09-29T17:31:53.949Z,99.90
2022-09-29T17:34:28.759Z,99.90
2022-09-29T17:37:00.215Z,99.90
2022-09-29T17:39:28.432Z,99.90
2022-09-29T17:41:56.442Z,99.90
2022-09-29T17:44:24.964Z,99.90
2022-09-29T17:47:01.039Z,99.90
2022-09-29T17:49:41.568Z,99.90
2022-09-29T17:52:14.985Z,99.90
2022-09-29T17:54:43.319Z,99.90
2022-09-29T17:57:20.736Z,99.90
2022-09-29T17:59:48.807Z,99.90
2022-09-29T18:02:17.161Z,99.90
2022-09-29T18:04:49.283Z,99.90
2022-09-29T18:07:17.375Z,99.90
2022-09-29T18:09:47.050Z,99.90
2022-09-29T18:12:15.133Z,99.90
2022-09-29T18:14:43.181Z,99.90
2022-09-29T18:17:12.309Z,99.90
2022-09-29T18:19:40.666Z,99.90
2022-09-29T18:22:10.617Z,99.90
2022-09-29T18:24:38.590Z,99.90
2022-09-29T18:27:07.807Z,99.90
2022-09-29T18:29:35.886Z,99.90
2022-09-29T18:32:03.926Z,99.90
2022-09-29T18:34:34.062Z,99.90
2022-09-29T18:37:02.113Z,99.90
2022-09-29T18:39:31.554Z,99.90
2022-09-29T18:41:59.595Z,99.90
2022-09-29T18:44:29.964Z,99.90
2022-09-29T18:46:58.061Z,99.90
2022-09-29T18:49:26.226Z,99.90
2022-09-29T18:51:54.282Z,99.90
2022-09-29T18:54:22.314Z,99.90
2022-09-29T18:56:54.612Z,99.90
2022-09-29T18:59:23.043Z,99.90
2022-09-29T19:01:51.316Z,99.90
2022-09-29T19:04:19.530Z,99.90
2022-09-29T19:06:47.610Z,99.90
2022-09-29T19:09:15.762Z,99.90
2022-09-29T19:11:45.057Z,99.90
2022-09-29T19:14:14.613Z,99.90
2022-09-29T19:16:44.451Z,99.90
2022-09-29T19:19:12.516Z,99.90
2022-09-29T19:21:42.411Z,99.90
2022-09-29T19:24:10.616Z,99.90
2022-09-29T19:26:40.050Z,99.90
2022-09-29T19:29:08.052Z,99.90
2022-09-29T19:31:37.816Z,99.90
2022-09-29T19:34:05.917Z,99.90
2022-09-29T19:36:35.617Z,99.90
2022-09-29T19:39:04.627Z,99.90
2022-09-29T19:41:32.658Z,99.90
2022-09-29T19:44:00.856Z,99.90
2022-09-29T19:46:28.934Z,99.90
2022-09-29T19:48:58.378Z,99.90
2022-09-29T19:51:47.376Z,99.90
2022-09-29T19:54:18.921Z,99.90
2022-09-29T19:56:49.873Z,99.90
2022-09-29T19:59:20.378Z,99.90
2022-09-29T20:01:50.213Z,99.90
2022-09-29T20:04:25.855Z,99.90
2022-09-29T20:06:57.071Z,99.90
2022-09-29T20:09:25.442Z,99.90
2022-09-29T20:11:54.390Z,99.90
2022-09-29T20:14:25.439Z,99.90
2022-09-29T20:16:55.251Z,99.90
2022-09-29T20:19:25.026Z,99.90
2022-09-29T20:21:54.198Z,99.90
2022-09-29T20:24:24.023Z,99.90
2022-09-29T20:26:57.408Z,99.90
2022-09-29T20:29:27.072Z,99.90
2022-09-29T20:31:55.098Z,99.90
2022-09-29T20:34:24.721Z,99.90
2022-09-29T20:36:55.030Z,99.90
2022-09-29T20:39:25.181Z,99.90
2022-09-29T20:41:54.541Z,99.90
2022-09-29T20:44:25.960Z,99.90
2022-09-29T20:46:55.246Z,99.90
2022-09-29T20:49:25.323Z,99.90
2022-09-29T20:51:53.981Z,99.90
2022-09-29T20:54:22.692Z,99.90
2022-09-29T20:56:52.039Z,99.90
2022-09-29T20:59:23.224Z,99.90
2022-09-29T21:01:53.327Z,99.90
2022-09-29T21:04:22.775Z,99.90
2022-09-29T21:06:53.062Z,99.90
2022-09-29T21:09:24.083Z,99.90
2022-09-29T21:11:54.410Z,99.90
2022-09-29T21:14:24.251Z,99.90
2022-09-29T21:16:53.133Z,99.90
2022-09-29T21:19:23.918Z,99.90
2022-09-29T21:21:53.297Z,99.90
2022-09-29T21:24:21.328Z,99.90
2022-09-29T21:26:49.365Z,99.90
2022-09-29T21:29:18.969Z,99.90
2022-09-29T21:31:47.282Z,99.90
2022-09-29T21:34:16.282Z,99.90
2022-09-29T21:36:44.428Z,99.90
2022-09-29T21:39:14.478Z,99.90
2022-09-29T21:41:44.343Z,99.90
2022-09-29T21:44:15.437Z,99.90
2022-09-29T21:46:44.351Z,99.90
2022-09-29T21:49:14.435Z,99.90
2022-09-29T21:51:44.238Z,99.90
2022-09-29T21:54:15.210Z,99.90
2022-09-29T21:56:44.864Z,99.90
2022-09-29T21:59:14.573Z,99.90
2022-09-29T22:01:43.040Z,99.90
2022-09-29T22:04:11.748Z,99.90
2022-09-29T22:06:40.557Z,99.90
2022-09-29T22:09:10.069Z,99.90
2022-09-29T22:11:40.008Z,99.90
2022-09-29T22:14:08.173Z,99.90
2022-09-29T22:16:36.807Z,99.90
2022-09-29T22:21:54.859Z,99.90
2022-09-29T22:24:26.438Z,99.90
2022-09-29T22:26:56.120Z,99.90
2022-09-29T22:29:24.269Z,99.90
2022-09-29T22:31:52.671Z,99.90
2022-09-29T22:34:20.779Z,99.90
2022-09-29T22:36:48.833Z,99.90
2022-09-29T22:39:16.832Z,99.90
2022-09-29T22:41:44.944Z,99.90
2022-09-29T22:44:14.284Z,99.90
2022-09-29T22:46:42.303Z,99.90
2022-09-29T22:49:10.498Z,99.90
2022-09-29T22:51:38.601Z,99.90
2022-09-29T22:54:06.577Z,99.90
2022-09-29T22:56:35.131Z,99.90
2022-09-29T22:59:04.975Z,99.90
2022-09-29T23:01:34.753Z,99.90
2022-09-29T23:04:04.061Z,99.90
2022-09-29T23:06:32.636Z,99.90
2022-09-29T23:09:00.857Z,99.90
2022-09-29T23:11:29.974Z,99.90
2022-09-29T23:14:00.273Z,99.90
2022-09-29T23:16:28.639Z,99.90
2022-09-29T23:18:59.501Z,99.90
2022-09-29T23:21:27.887Z,99.90
2022-09-29T23:23:57.723Z,99.90
2022-09-29T23:26:26.582Z,99.90
2022-09-29T23:28:55.805Z,99.90
2022-09-29T23:31:24.002Z,99.90
2022-09-29T23:33:53.049Z,99.90
2022-09-29T23:36:23.194Z,99.90
2022-09-29T23:39:05.157Z,99.90
2022-09-29T23:41:33.587Z,99.90
2022-09-29T23:44:05.093Z,99.90
2022-09-29T23:46:34.939Z,99.90
2022-09-29T23:49:09.152Z,99.90
2022-09-29T23:51:40.228Z,99.90
2022-09-29T23:54:09.364Z,99.90
2022-09-29T23:56:37.659Z,99.90
2022-09-29T23:59:06.257Z,99.90
